createdAt,value
2017-03-02T00:00:10.585Z,997.23
2017-03-02T00:01:20.944Z,997.24
2017-03-02T00:02:31.209Z,997.22
2017-03-02T00:03:41.564Z,997.16
2017-03-02T00:04:51.507Z,997.17
2017-03-02T00:06:01.846Z,997.1
2017-03-02T00:07:12.576Z,997.1
2017-03-02T00:08:23.170Z,997.08
2017-03-02T00:09:33.109Z,997.08
2017-03-02T00:10:43.058Z,997.09
2017-03-02T00:11:53.399Z,997.09
2017-03-02T00:13:03.750Z,997.06
2017-03-02T00:14:14.408Z,997.14
2017-03-02T00:15:25.145Z,997.09
2017-03-02T00:16:35.900Z,997.11
2017-03-02T00:17:46.622Z,997.06
2017-03-02T00:18:56.199Z,997.06
2017-03-02T00:20:06.779Z,997
2017-03-02T00:21:16.710Z,996.99
2017-03-02T00:22:26.644Z,996.97
2017-03-02T00:23:36.981Z,997.02
2017-03-02T00:24:46.956Z,996.98
2017-03-02T00:25:57.566Z,996.94
2017-03-02T00:27:08.543Z,996.95
2017-03-02T00:28:18.882Z,996.95
2017-03-02T00:29:29.604Z,996.95
2017-03-02T00:30:39.537Z,996.96
2017-03-02T00:31:50.151Z,996.96
2017-03-02T00:32:59.697Z,996.96
2017-03-02T00:34:10.046Z,996.95
2017-03-02T00:35:20.398Z,996.9
2017-03-02T00:36:30.349Z,996.87
2017-03-02T00:37:40.568Z,996.86
2017-03-02T00:38:50.930Z,996.82
2017-03-02T00:40:01.271Z,996.78
2017-03-02T00:41:12.011Z,996.77
2017-03-02T00:42:22.356Z,996.75
2017-03-02T00:43:32.935Z,996.71
2017-03-02T00:44:42.880Z,996.65
2017-03-02T00:45:53.620Z,996.62
2017-03-02T00:47:03.556Z,996.62
2017-03-02T00:48:14.311Z,996.59
2017-03-02T00:49:24.490Z,996.65
2017-03-02T00:50:33.680Z,996.62
2017-03-02T00:51:44.419Z,996.58
2017-03-02T00:52:54.354Z,996.62
2017-03-02T00:54:05.094Z,996.56
2017-03-02T00:55:15.305Z,996.52
2017-03-02T00:56:25.648Z,996.49
2017-03-02T00:57:35.595Z,996.5
2017-03-02T00:58:45.933Z,996.52
2017-03-02T00:59:56.289Z,996.49
2017-03-02T01:01:07.312Z,996.45
2017-03-02T01:02:18.064Z,996.44
2017-03-02T01:03:28.429Z,996.41
2017-03-02T01:04:38.787Z,996.35
2017-03-02T01:05:49.112Z,996.34
2017-03-02T01:06:59.699Z,996.31
2017-03-02T01:08:09.638Z,996.3
2017-03-02T01:09:19.971Z,996.27
2017-03-02T01:10:30.771Z,996.26
2017-03-02T01:11:41.141Z,996.22
2017-03-02T01:12:51.754Z,996.22
2017-03-02T01:14:02.147Z,996.23
2017-03-02T01:15:12.508Z,996.21
2017-03-02T01:16:22.461Z,996.17
2017-03-02T01:17:32.403Z,996.14
2017-03-02T01:18:42.624Z,996.11
2017-03-02T01:19:53.368Z,996.07
2017-03-02T01:21:04.133Z,996.08
2017-03-02T01:22:14.471Z,996.06
2017-03-02T01:23:25.232Z,996.01
2017-03-02T01:24:35.460Z,996
2017-03-02T01:25:45.412Z,995.96
2017-03-02T01:26:55.351Z,995.98
2017-03-02T01:28:06.099Z,995.97
2017-03-02T01:29:16.429Z,995.98
2017-03-02T01:30:27.095Z,995.94
2017-03-02T01:31:37.026Z,995.84
2017-03-02T01:32:46.591Z,995.84
2017-03-02T01:33:57.341Z,995.81
2017-03-02T01:35:07.679Z,995.83
2017-03-02T01:36:17.911Z,995.83
2017-03-02T01:37:28.657Z,995.83
2017-03-02T01:38:39.022Z,995.8
2017-03-02T01:39:49.355Z,995.82
2017-03-02T01:40:59.301Z,995.8
2017-03-02T01:42:09.486Z,995.74
2017-03-02T01:43:19.445Z,995.74
2017-03-02T01:44:30.183Z,995.65
2017-03-02T01:45:40.523Z,995.63
2017-03-02T01:46:50.060Z,995.56
2017-03-02T01:48:01.086Z,995.56
2017-03-02T01:49:10.650Z,995.49
2017-03-02T01:50:20.625Z,995.5
2017-03-02T01:51:31.358Z,995.45
2017-03-02T01:52:42.093Z,995.47
2017-03-02T01:53:53.089Z,995.45
2017-03-02T01:55:03.051Z,995.4
2017-03-02T01:56:13.419Z,995.42
2017-03-02T01:57:22.984Z,995.42
2017-03-02T01:58:32.546Z,995.46
2017-03-02T01:59:42.750Z,995.47
2017-03-02T02:00:53.070Z,995.42
2017-03-02T02:02:03.413Z,995.35
2017-03-02T02:03:13.745Z,995.36
2017-03-02T02:04:23.307Z,995.32
2017-03-02T02:05:33.939Z,995.3
2017-03-02T02:06:44.287Z,995.28
2017-03-02T02:07:54.244Z,995.34
2017-03-02T02:09:04.204Z,995.31
2017-03-02T02:10:13.355Z,995.34
2017-03-02T02:11:23.929Z,995.36
2017-03-02T02:12:34.274Z,995.36
2017-03-02T02:13:44.629Z,995.34
2017-03-02T02:14:54.174Z,995.35
2017-03-02T02:16:04.119Z,995.31
2017-03-02T02:17:14.719Z,995.25
2017-03-02T02:18:25.455Z,995.25
2017-03-02T02:19:35.024Z,995.24
2017-03-02T02:20:45.385Z,995.22
2017-03-02T02:21:55.333Z,995.22
2017-03-02T02:23:05.603Z,995.21
2017-03-02T02:24:16.343Z,995.17
2017-03-02T02:25:26.328Z,995.11
2017-03-02T02:26:36.677Z,995.07
2017-03-02T02:27:47.024Z,995.04
2017-03-02T02:28:57.634Z,995.03
2017-03-02T02:30:07.978Z,995.04
2017-03-02T02:31:18.339Z,995.01
2017-03-02T02:32:28.310Z,995.01
2017-03-02T02:33:38.271Z,994.96
2017-03-02T02:34:48.477Z,994.93
2017-03-02T02:35:58.025Z,994.93
2017-03-02T02:37:08.365Z,994.86
2017-03-02T02:38:18.695Z,994.85
2017-03-02T02:39:29.075Z,994.83
2017-03-02T02:40:38.569Z,994.79
2017-03-02T02:41:49.299Z,994.8
2017-03-02T02:42:59.679Z,994.75
2017-03-02T02:44:10.399Z,994.72
2017-03-02T02:45:20.329Z,994.68
2017-03-02T02:46:30.189Z,994.66
2017-03-02T02:47:40.947Z,994.67
2017-03-02T02:48:50.905Z,994.68
2017-03-02T02:50:01.236Z,994.65
2017-03-02T02:51:11.565Z,994.63
2017-03-02T02:52:22.189Z,994.67
2017-03-02T02:53:32.936Z,994.64
2017-03-02T02:54:42.884Z,994.61
2017-03-02T02:55:53.229Z,994.58
2017-03-02T02:57:03.959Z,994.58
2017-03-02T02:58:14.569Z,994.59
2017-03-02T02:59:24.499Z,994.59
2017-03-02T03:00:34.077Z,994.53
2017-03-02T03:01:43.262Z,994.6
2017-03-02T03:02:53.585Z,994.57
2017-03-02T03:04:04.247Z,994.55
2017-03-02T03:05:14.624Z,994.51
2017-03-02T03:06:24.570Z,994.5
2017-03-02T03:07:34.538Z,994.42
2017-03-02T03:08:44.865Z,994.41
2017-03-02T03:09:55.489Z,994.44
2017-03-02T03:11:06.219Z,994.44
2017-03-02T03:12:16.596Z,994.4
2017-03-02T03:13:26.945Z,994.34
2017-03-02T03:14:36.542Z,994.25
2017-03-02T03:15:47.178Z,994.2
2017-03-02T03:16:57.130Z,994.2
2017-03-02T03:18:07.913Z,994.16
2017-03-02T03:19:17.475Z,994.13
2017-03-02T03:20:27.821Z,994.12
2017-03-02T03:21:38.027Z,994.03
2017-03-02T03:22:47.601Z,993.98
2017-03-02T03:23:58.354Z,993.95
2017-03-02T03:25:08.291Z,993.91
2017-03-02T03:26:18.241Z,993.93
2017-03-02T03:27:28.839Z,993.91
2017-03-02T03:28:37.998Z,993.89
2017-03-02T03:29:47.941Z,993.9
2017-03-02T03:30:57.880Z,993.83
2017-03-02T03:32:07.834Z,993.84
2017-03-02T03:33:18.040Z,993.81
2017-03-02T03:34:28.033Z,993.78
2017-03-02T03:35:38.759Z,993.77
2017-03-02T03:36:47.511Z,993.76
2017-03-02T03:37:57.492Z,993.72
2017-03-02T03:39:08.129Z,993.71
2017-03-02T03:40:18.059Z,993.7
2017-03-02T03:41:28.806Z,993.7
2017-03-02T03:42:39.534Z,993.65
2017-03-02T03:43:49.092Z,993.61
2017-03-02T03:45:00.081Z,993.58
2017-03-02T03:46:10.413Z,993.58
2017-03-02T03:47:21.172Z,993.58
2017-03-02T03:48:31.512Z,993.58
2017-03-02T03:49:41.464Z,993.58
2017-03-02T03:50:51.726Z,993.6
2017-03-02T03:52:01.681Z,993.56
2017-03-02T03:53:11.617Z,993.5
2017-03-02T03:54:21.194Z,993.51
2017-03-02T03:55:31.542Z,993.46
2017-03-02T03:56:41.399Z,993.45
2017-03-02T03:57:51.732Z,993.38
2017-03-02T03:59:01.678Z,993.35
2017-03-02T04:00:12.026Z,993.31
2017-03-02T04:01:21.965Z,993.25
2017-03-02T04:02:32.621Z,993.2
2017-03-02T04:03:42.972Z,993.17
2017-03-02T04:04:52.928Z,993.14
2017-03-02T04:06:02.874Z,993.12
2017-03-02T04:07:12.820Z,993.13
2017-03-02T04:08:23.057Z,993.19
2017-03-02T04:09:33.387Z,993.14
2017-03-02T04:10:43.742Z,993.07
2017-03-02T04:11:53.696Z,993.02
2017-03-02T04:13:04.049Z,993
2017-03-02T04:14:15.034Z,993.03
2017-03-02T04:15:25.389Z,993.03
2017-03-02T04:16:35.728Z,993.02
2017-03-02T04:17:45.677Z,992.98
2017-03-02T04:18:56.029Z,992.99
2017-03-02T04:20:07.085Z,992.97
2017-03-02T04:21:16.650Z,992.99
2017-03-02T04:22:26.599Z,992.94
2017-03-02T04:23:36.964Z,992.93
2017-03-02T04:24:47.325Z,992.94
2017-03-02T04:25:57.920Z,992.93
2017-03-02T04:27:08.650Z,992.92
2017-03-02T04:28:18.986Z,992.89
2017-03-02T04:29:28.539Z,992.89
2017-03-02T04:30:39.278Z,992.9
2017-03-02T04:31:49.078Z,992.87
2017-03-02T04:32:59.038Z,992.82
2017-03-02T04:34:08.598Z,992.82
2017-03-02T04:35:18.140Z,992.79
2017-03-02T04:36:28.477Z,992.8
2017-03-02T04:37:39.135Z,992.75
2017-03-02T04:38:49.459Z,992.75
2017-03-02T04:39:59.008Z,992.7
2017-03-02T04:41:08.956Z,992.67
2017-03-02T04:42:19.295Z,992.69
2017-03-02T04:43:29.545Z,992.7
2017-03-02T04:44:40.307Z,992.64
2017-03-02T04:45:50.652Z,992.6
2017-03-02T04:47:00.972Z,992.6
2017-03-02T04:48:11.325Z,992.65
2017-03-02T04:49:21.954Z,992.63
2017-03-02T04:50:31.895Z,992.55
2017-03-02T04:51:42.626Z,992.55
2017-03-02T04:52:53.005Z,992.6
2017-03-02T04:54:03.349Z,992.58
2017-03-02T04:55:13.551Z,992.57
2017-03-02T04:56:23.894Z,992.51
2017-03-02T04:57:34.659Z,992.6
2017-03-02T04:58:45.010Z,992.58
2017-03-02T04:59:55.350Z,992.58
2017-03-02T05:01:06.405Z,992.55
2017-03-02T05:02:16.746Z,992.49
2017-03-02T05:03:26.713Z,992.54
2017-03-02T05:04:36.662Z,992.5
2017-03-02T05:05:46.601Z,992.51
2017-03-02T05:06:56.805Z,992.6
2017-03-02T05:08:06.349Z,992.57
2017-03-02T05:09:17.094Z,992.52
2017-03-02T05:10:27.833Z,992.48
2017-03-02T05:11:38.581Z,992.46
2017-03-02T05:12:49.216Z,992.41
2017-03-02T05:13:58.777Z,992.43
2017-03-02T05:15:09.107Z,992.46
2017-03-02T05:16:19.442Z,992.42
2017-03-02T05:17:30.422Z,992.38
2017-03-02T05:18:40.275Z,992.43
2017-03-02T05:19:49.452Z,992.4
2017-03-02T05:20:59.410Z,992.37
2017-03-02T05:22:09.347Z,992.32
2017-03-02T05:23:19.702Z,992.25
2017-03-02T05:24:30.275Z,992.29
2017-03-02T05:25:39.817Z,992.3
2017-03-02T05:26:49.782Z,992.3
2017-03-02T05:27:59.362Z,992.26
2017-03-02T05:29:09.321Z,992.28
2017-03-02T05:30:19.913Z,992.25
2017-03-02T05:31:30.688Z,992.24
2017-03-02T05:32:41.010Z,992.21
2017-03-02T05:33:50.957Z,992.17
2017-03-02T05:35:01.280Z,992.18
2017-03-02T05:36:11.490Z,992.14
2017-03-02T05:37:21.479Z,992.16
2017-03-02T05:38:31.422Z,992.08
2017-03-02T05:39:41.760Z,992.12
2017-03-02T05:40:51.705Z,992.07
2017-03-02T05:42:02.777Z,992.1
2017-03-02T05:43:13.539Z,992.11
2017-03-02T05:44:23.097Z,992.11
2017-03-02T05:45:32.646Z,992.09
2017-03-02T05:46:42.608Z,992.07
2017-03-02T05:47:53.203Z,992.04
2017-03-02T05:49:03.551Z,992.01
2017-03-02T05:50:13.500Z,991.95
2017-03-02T05:51:24.242Z,991.96
2017-03-02T05:52:34.998Z,991.89
2017-03-02T05:53:45.587Z,991.98
2017-03-02T05:54:55.932Z,991.97
2017-03-02T05:56:05.898Z,991.98
2017-03-02T05:57:16.647Z,991.95
2017-03-02T05:58:26.975Z,991.92
2017-03-02T05:59:36.761Z,991.91
2017-03-02T06:00:47.107Z,991.91
2017-03-02T06:01:57.434Z,991.91
2017-03-02T06:03:07.396Z,991.95
2017-03-02T06:04:18.151Z,991.92
2017-03-02T06:05:28.355Z,991.91
2017-03-02T06:06:38.691Z,991.96
2017-03-02T06:07:48.788Z,991.98
2017-03-02T06:08:58.759Z,992.01
2017-03-02T06:10:09.479Z,992.04
2017-03-02T06:11:20.516Z,992.02
2017-03-02T06:12:30.865Z,992.07
2017-03-02T06:13:40.827Z,992.03
2017-03-02T06:14:51.578Z,992.01
2017-03-02T06:16:01.942Z,992.04
2017-03-02T06:17:11.754Z,992.04
2017-03-02T06:18:21.306Z,992.06
2017-03-02T06:19:32.071Z,992.07
2017-03-02T06:20:41.619Z,992.07
2017-03-02T06:21:51.985Z,992.08
2017-03-02T06:23:02.979Z,992.04
2017-03-02T06:24:13.330Z,992.1
2017-03-02T06:25:23.706Z,992.08
2017-03-02T06:26:34.074Z,992.11
2017-03-02T06:27:44.829Z,992.1
2017-03-02T06:28:55.077Z,992.11
2017-03-02T06:30:05.456Z,992.1
2017-03-02T06:31:16.209Z,992.15
2017-03-02T06:32:25.795Z,992.14
2017-03-02T06:33:35.745Z,992.09
2017-03-02T06:34:46.815Z,992.13
2017-03-02T06:35:57.578Z,992.1
2017-03-02T06:37:08.329Z,992.1
2017-03-02T06:38:18.675Z,992.14
2017-03-02T06:39:29.438Z,992.08
2017-03-02T06:40:40.469Z,992.08
2017-03-02T06:41:51.241Z,992.08
2017-03-02T06:43:00.809Z,992.03
2017-03-02T06:44:11.581Z,992.11
2017-03-02T06:45:21.544Z,992.09
2017-03-02T06:46:32.204Z,992.09
2017-03-02T06:47:42.951Z,992.14
2017-03-02T06:48:52.093Z,992.17
2017-03-02T06:50:02.054Z,992.19
2017-03-02T06:51:12.429Z,992.15
2017-03-02T06:52:23.075Z,992.18
2017-03-02T06:53:33.417Z,992.2
2017-03-02T06:54:44.173Z,992.28
2017-03-02T06:55:54.511Z,992.27
2017-03-02T06:57:04.858Z,992.28
2017-03-02T06:58:15.445Z,992.36
2017-03-02T06:59:26.179Z,992.31
2017-03-02T07:00:36.547Z,992.34
2017-03-02T07:01:46.906Z,992.35
2017-03-02T07:02:56.885Z,992.39
2017-03-02T07:04:07.932Z,992.48
2017-03-02T07:05:17.871Z,992.48
2017-03-02T07:06:28.046Z,992.48
2017-03-02T07:07:38.404Z,992.48
2017-03-02T07:08:49.164Z,992.41
2017-03-02T07:09:59.387Z,992.46
2017-03-02T07:11:10.122Z,992.44
2017-03-02T07:12:20.090Z,992.4
2017-03-02T07:13:30.842Z,992.44
2017-03-02T07:14:41.238Z,992.42
2017-03-02T07:15:52.249Z,992.41
2017-03-02T07:17:03.026Z,992.45
2017-03-02T07:18:12.987Z,992.49
2017-03-02T07:19:23.356Z,992.51
2017-03-02T07:20:33.760Z,992.43
2017-03-02T07:21:44.870Z,992.42
2017-03-02T07:22:55.248Z,992.46
2017-03-02T07:24:05.602Z,992.44
2017-03-02T07:25:15.951Z,992.46
2017-03-02T07:26:26.326Z,992.45
2017-03-02T07:27:36.976Z,992.42
2017-03-02T07:28:47.758Z,992.45
2017-03-02T07:29:57.775Z,992.49
2017-03-02T07:31:08.099Z,992.51
2017-03-02T07:32:18.047Z,992.51
2017-03-02T07:33:28.306Z,992.51
2017-03-02T07:34:39.102Z,992.49
2017-03-02T07:35:49.488Z,992.55
2017-03-02T07:37:00.094Z,992.59
2017-03-02T07:38:11.175Z,992.56
2017-03-02T07:39:21.817Z,992.57
2017-03-02T07:40:32.583Z,992.58
2017-03-02T07:41:43.349Z,992.58
2017-03-02T07:42:53.697Z,992.59
2017-03-02T07:44:04.437Z,992.56
2017-03-02T07:45:14.725Z,992.58
2017-03-02T07:46:25.482Z,992.63
2017-03-02T07:47:36.238Z,992.62
2017-03-02T07:48:46.650Z,992.67
2017-03-02T07:49:57.111Z,992.68
2017-03-02T07:51:07.834Z,992.64
2017-03-02T07:52:17.800Z,992.7
2017-03-02T07:53:28.194Z,992.67
2017-03-02T07:54:38.970Z,992.69
2017-03-02T07:55:49.361Z,992.68
2017-03-02T07:57:00.679Z,992.69
2017-03-02T07:58:10.676Z,992.75
2017-03-02T07:59:21.441Z,992.8
2017-03-02T08:00:32.200Z,992.78
2017-03-02T08:01:42.599Z,992.81
2017-03-02T08:02:53.214Z,992.81
2017-03-02T08:04:03.999Z,992.82
2017-03-02T08:05:14.369Z,992.77
2017-03-02T08:06:24.701Z,992.77
2017-03-02T08:07:35.482Z,992.81
2017-03-02T08:08:46.087Z,992.86
2017-03-02T08:09:56.839Z,992.9
2017-03-02T08:11:07.191Z,992.9
2017-03-02T08:12:16.773Z,993.02
2017-03-02T08:13:27.133Z,993.02
2017-03-02T08:14:38.119Z,993.07
2017-03-02T08:15:48.481Z,993.1
2017-03-02T08:16:58.833Z,993.23
2017-03-02T08:18:09.591Z,993.12
2017-03-02T08:19:19.965Z,993.14
2017-03-02T08:20:30.655Z,993.2
2017-03-02T08:21:41.423Z,993.26
2017-03-02T08:22:52.166Z,993.2
2017-03-02T08:24:02.919Z,993.14
2017-03-02T08:25:12.880Z,993.13
2017-03-02T08:26:23.264Z,993.08
2017-03-02T08:27:33.230Z,993.08
2017-03-02T08:28:43.630Z,993.23
2017-03-02T08:29:54.392Z,993.2
2017-03-02T08:31:04.225Z,993.38
2017-03-02T08:32:14.620Z,993.43
2017-03-02T08:33:25.390Z,993.34
2017-03-02T08:34:36.154Z,993.4
2017-03-02T08:35:46.526Z,993.43
2017-03-02T08:36:57.605Z,993.63
2017-03-02T08:38:08.338Z,993.59
2017-03-02T08:39:18.743Z,993.74
2017-03-02T08:40:28.686Z,993.72
2017-03-02T08:41:39.041Z,993.76
2017-03-02T08:42:49.689Z,993.87
2017-03-02T08:44:00.056Z,993.96
2017-03-02T08:45:10.811Z,994.06
2017-03-02T08:46:20.384Z,994
2017-03-02T08:47:31.070Z,993.91
2017-03-02T08:48:41.736Z,993.87
2017-03-02T08:49:52.107Z,993.85
2017-03-02T08:51:02.071Z,993.86
2017-03-02T08:52:12.036Z,993.74
2017-03-02T08:53:22.803Z,993.73
2017-03-02T08:54:33.804Z,993.74
2017-03-02T08:55:44.170Z,993.83
2017-03-02T08:56:54.548Z,993.78
2017-03-02T08:58:04.912Z,993.84
2017-03-02T08:59:14.487Z,993.9
2017-03-02T09:00:24.683Z,993.88
2017-03-02T09:01:35.057Z,993.94
2017-03-02T09:02:45.461Z,994
2017-03-02T09:03:55.852Z,994.06
2017-03-02T09:05:06.239Z,994.02
2017-03-02T09:06:16.834Z,994.02
2017-03-02T09:07:27.203Z,994.04
2017-03-02T09:08:37.956Z,994.03
2017-03-02T09:09:48.757Z,994.04
2017-03-02T09:10:58.330Z,994.08
2017-03-02T09:12:09.361Z,994.09
2017-03-02T09:13:19.746Z,994.08
2017-03-02T09:14:29.304Z,994.1
2017-03-02T09:15:39.672Z,994.07
2017-03-02T09:16:50.442Z,994.07
2017-03-02T09:18:00.700Z,994.07
2017-03-02T09:19:11.067Z,994.05
2017-03-02T09:20:21.041Z,994.09
2017-03-02T09:21:31.396Z,994.06
2017-03-02T09:22:42.137Z,994.04
2017-03-02T09:23:53.124Z,994.04
2017-03-02T09:25:03.485Z,994.05
2017-03-02T09:26:13.864Z,994
2017-03-02T09:27:24.641Z,994.06
2017-03-02T09:28:35.033Z,994.1
2017-03-02T09:29:45.647Z,994.16
2017-03-02T09:30:56.030Z,994.07
2017-03-02T09:32:05.995Z,994.09
2017-03-02T09:33:15.940Z,994.17
2017-03-02T09:34:26.324Z,994.11
2017-03-02T09:35:36.524Z,994.12
2017-03-02T09:36:47.302Z,994.09
2017-03-02T09:37:57.705Z,994.15
2017-03-02T09:39:08.334Z,994.17
2017-03-02T09:40:17.579Z,994.12
2017-03-02T09:41:28.596Z,994.21
2017-03-02T09:42:39.358Z,994.21
2017-03-02T09:43:48.969Z,994.22
2017-03-02T09:44:59.352Z,994.22
2017-03-02T09:46:10.151Z,994.22
2017-03-02T09:47:20.838Z,994.24
2017-03-02T09:48:31.647Z,994.3
2017-03-02T09:49:42.421Z,994.21
2017-03-02T09:50:52.398Z,994.36
2017-03-02T09:52:03.186Z,994.36
2017-03-02T09:53:13.887Z,994.32
2017-03-02T09:54:24.269Z,994.33
2017-03-02T09:55:35.041Z,994.38
2017-03-02T09:56:45.787Z,994.36
2017-03-02T09:57:56.139Z,994.39
2017-03-02T09:59:07.144Z,994.41
2017-03-02T10:00:17.132Z,994.51
2017-03-02T10:01:27.918Z,994.44
2017-03-02T10:02:38.241Z,994.52
2017-03-02T10:03:48.651Z,994.51
2017-03-02T10:04:58.520Z,994.52
2017-03-02T10:06:09.313Z,994.52
2017-03-02T10:07:20.069Z,994.6
2017-03-02T10:08:30.853Z,994.7
2017-03-02T10:09:40.811Z,994.78
2017-03-02T10:10:50.632Z,994.62
2017-03-02T10:12:01.386Z,994.66
2017-03-02T10:13:12.150Z,994.77
2017-03-02T10:14:22.488Z,995.07
2017-03-02T10:15:32.876Z,994.77
2017-03-02T10:16:43.487Z,994.7
2017-03-02T10:17:54.244Z,994.81
2017-03-02T10:19:05.020Z,994.8
2017-03-02T10:20:15.381Z,994.86
2017-03-02T10:21:25.742Z,994.89
2017-03-02T10:22:36.363Z,994.96
2017-03-02T10:23:46.752Z,994.93
2017-03-02T10:24:57.131Z,994.99
2017-03-02T10:26:07.097Z,995.03
2017-03-02T10:27:16.715Z,995.06
2017-03-02T10:28:27.315Z,995.13
2017-03-02T10:29:38.105Z,995.09
2017-03-02T10:30:48.847Z,995.13
2017-03-02T10:31:58.438Z,995.13
2017-03-02T10:33:08.428Z,995.17
2017-03-02T10:34:18.299Z,994.96
2017-03-02T10:35:28.262Z,995.08
2017-03-02T10:36:39.010Z,995.17
2017-03-02T10:37:49.753Z,995.17
2017-03-02T10:38:59.730Z,995.23
2017-03-02T10:40:10.758Z,995.26
2017-03-02T10:41:21.112Z,995.43
2017-03-02T10:42:31.465Z,995.28
2017-03-02T10:43:41.810Z,995.57
2017-03-02T10:44:52.165Z,995.51
2017-03-02T10:46:03.218Z,995.44
2017-03-02T10:47:13.599Z,995.47
2017-03-02T10:48:23.956Z,995.41
2017-03-02T10:49:34.332Z,995.6
2017-03-02T10:50:45.117Z,995.61
2017-03-02T10:51:55.744Z,995.52
2017-03-02T10:53:06.480Z,995.5
2017-03-02T10:54:16.443Z,995.52
2017-03-02T10:55:27.203Z,995.68
2017-03-02T10:56:37.795Z,995.8
2017-03-02T10:57:48.454Z,995.74
2017-03-02T10:58:58.454Z,995.71
2017-03-02T11:00:08.835Z,995.73
2017-03-02T11:01:19.574Z,995.95
2017-03-02T11:02:29.548Z,995.65
2017-03-02T11:03:40.563Z,995.84
2017-03-02T11:04:50.537Z,995.8
2017-03-02T11:06:00.902Z,995.88
2017-03-02T11:07:11.275Z,995.99
2017-03-02T11:08:21.226Z,995.9
2017-03-02T11:09:31.459Z,995.93
2017-03-02T11:10:41.423Z,995.98
2017-03-02T11:11:51.405Z,996.03
2017-03-02T11:13:02.167Z,996.07
2017-03-02T11:14:12.537Z,996.02
2017-03-02T11:15:22.785Z,996.09
2017-03-02T11:16:33.551Z,996.14
2017-03-02T11:17:44.307Z,996.17
2017-03-02T11:18:54.685Z,996.16
2017-03-02T11:20:05.050Z,996.24
2017-03-02T11:21:15.264Z,996.15
2017-03-02T11:22:25.616Z,996.26
2017-03-02T11:23:35.181Z,996.4
2017-03-02T11:24:45.516Z,996.38
2017-03-02T11:25:56.259Z,996.46
2017-03-02T11:27:06.867Z,996.45
2017-03-02T11:28:17.269Z,996.44
2017-03-02T11:29:27.631Z,996.54
2017-03-02T11:30:37.619Z,996.55
2017-03-02T11:31:48.426Z,996.5
2017-03-02T11:32:59.437Z,996.74
2017-03-02T11:34:09.412Z,996.63
2017-03-02T11:35:19.756Z,996.64
2017-03-02T11:36:28.919Z,996.66
2017-03-02T11:37:39.296Z,996.79
2017-03-02T11:38:49.494Z,996.73
2017-03-02T11:39:59.854Z,996.69
2017-03-02T11:41:10.206Z,996.83
2017-03-02T11:42:20.150Z,996.83
2017-03-02T11:43:30.556Z,996.83
2017-03-02T11:44:41.514Z,996.9
2017-03-02T11:45:51.885Z,996.92
2017-03-02T11:47:02.257Z,996.91
2017-03-02T11:48:12.634Z,996.95
2017-03-02T11:49:23.015Z,996.94
2017-03-02T11:50:33.602Z,997
2017-03-02T11:51:44.401Z,996.94
2017-03-02T11:52:55.126Z,997.01
2017-03-02T11:54:05.499Z,996.97
2017-03-02T11:55:15.849Z,997
2017-03-02T11:56:26.452Z,996.97
2017-03-02T11:57:36.806Z,997.05
2017-03-02T11:58:46.753Z,996.97
2017-03-02T11:59:57.105Z,997.07
2017-03-02T12:01:07.067Z,997
2017-03-02T12:02:17.679Z,997.08
2017-03-02T12:03:27.658Z,997.11
2017-03-02T12:04:38.420Z,997.04
2017-03-02T12:05:48.434Z,997.1
2017-03-02T12:06:58.781Z,997.11
2017-03-02T12:08:09.440Z,997.07
2017-03-02T12:09:19.782Z,997.13
2017-03-02T12:10:30.137Z,997.13
2017-03-02T12:11:40.071Z,997.06
2017-03-02T12:12:50.035Z,997
2017-03-02T12:13:59.835Z,997.06
2017-03-02T12:15:09.434Z,997.07
2017-03-02T12:16:20.241Z,997.15
2017-03-02T12:17:30.595Z,997.03
2017-03-02T12:18:40.948Z,997.13
2017-03-02T12:19:51.578Z,997.16
2017-03-02T12:21:01.937Z,997.18
2017-03-02T12:22:12.720Z,997.16
2017-03-02T12:23:23.460Z,997.24
2017-03-02T12:24:33.821Z,997.26
2017-03-02T12:25:43.808Z,997.22
2017-03-02T12:26:54.170Z,997.26
2017-03-02T12:28:03.712Z,997.37
2017-03-02T12:29:14.462Z,997.41
2017-03-02T12:30:24.821Z,997.31
2017-03-02T12:31:34.648Z,997.41
2017-03-02T12:32:45.005Z,997.39
2017-03-02T12:33:55.745Z,997.39
2017-03-02T12:35:06.113Z,997.46
2017-03-02T12:36:16.708Z,997.49
2017-03-02T12:37:27.043Z,997.48
2017-03-02T12:38:37.818Z,997.49
2017-03-02T12:39:48.573Z,997.48
2017-03-02T12:40:59.325Z,997.52
2017-03-02T12:42:09.692Z,997.54
2017-03-02T12:43:20.434Z,997.62
2017-03-02T12:44:31.171Z,997.69
2017-03-02T12:45:41.510Z,997.69
2017-03-02T12:46:52.096Z,997.68
2017-03-02T12:48:02.859Z,997.72
2017-03-02T12:49:13.632Z,997.71
2017-03-02T12:50:24.389Z,997.8
2017-03-02T12:51:34.777Z,997.72
2017-03-02T12:52:45.782Z,997.69
2017-03-02T12:53:56.118Z,997.84
2017-03-02T12:55:06.867Z,997.75
2017-03-02T12:56:16.814Z,997.84
2017-03-02T12:57:27.177Z,997.85
2017-03-02T12:58:37.384Z,997.81
2017-03-02T12:59:48.141Z,997.9
2017-03-02T13:00:58.900Z,997.9
2017-03-02T13:02:09.248Z,997.94
2017-03-02T13:03:20.004Z,997.92
2017-03-02T13:04:30.482Z,997.97
2017-03-02T13:05:41.280Z,997.97
2017-03-02T13:06:52.025Z,997.92
2017-03-02T13:08:02.771Z,998.02
2017-03-02T13:09:13.124Z,997.94
2017-03-02T13:10:24.188Z,997.98
2017-03-02T13:11:34.944Z,997.99
2017-03-02T13:12:45.722Z,998.03
2017-03-02T13:13:56.064Z,997.95
2017-03-02T13:15:06.425Z,998.1
2017-03-02T13:16:17.095Z,998.1
2017-03-02T13:17:27.463Z,998.09
2017-03-02T13:18:37.392Z,998.14
2017-03-02T13:19:47.766Z,998.04
2017-03-02T13:20:58.519Z,998.11
2017-03-02T13:22:09.560Z,998.17
2017-03-02T13:23:19.116Z,998.25
2017-03-02T13:24:29.516Z,998.18
2017-03-02T13:25:39.877Z,998.31
2017-03-02T13:26:50.623Z,998.32
2017-03-02T13:28:01.619Z,998.31
2017-03-02T13:29:11.178Z,998.44
2017-03-02T13:30:21.929Z,998.4
2017-03-02T13:31:31.881Z,998.43
2017-03-02T13:32:41.827Z,998.4
2017-03-02T13:33:52.834Z,998.38
2017-03-02T13:35:03.202Z,998.47
2017-03-02T13:36:13.977Z,998.53
2017-03-02T13:37:24.516Z,998.6
2017-03-02T13:38:35.248Z,998.54
2017-03-02T13:39:44.684Z,998.51
2017-03-02T13:40:55.025Z,998.6
2017-03-02T13:42:05.010Z,998.66
2017-03-02T13:43:15.392Z,998.67
2017-03-02T13:44:25.368Z,998.67
2017-03-02T13:45:36.047Z,998.72
2017-03-02T13:46:45.205Z,998.74
2017-03-02T13:47:55.561Z,998.78
2017-03-02T13:49:06.508Z,998.79
2017-03-02T13:50:17.468Z,998.8
2017-03-02T13:51:27.685Z,998.86
2017-03-02T13:52:38.450Z,998.89
2017-03-02T13:53:48.814Z,998.95
2017-03-02T13:54:58.836Z,999
2017-03-02T13:56:09.183Z,999
2017-03-02T13:57:19.506Z,999.1
2017-03-02T13:58:29.451Z,999.15
2017-03-02T13:59:40.254Z,999.12
2017-03-02T14:00:50.234Z,999.22
2017-03-02T14:02:00.585Z,999.29
2017-03-02T14:03:11.241Z,999.4
2017-03-02T14:04:21.670Z,999.42
2017-03-02T14:05:32.446Z,999.46
2017-03-02T14:06:42.859Z,999.5
2017-03-02T14:07:53.615Z,999.53
2017-03-02T14:09:04.222Z,999.6
2017-03-02T14:10:14.209Z,999.61
2017-03-02T14:11:24.555Z,999.63
2017-03-02T14:12:35.295Z,999.67
2017-03-02T14:13:45.255Z,999.63
2017-03-02T14:14:55.882Z,999.77
2017-03-02T14:16:06.233Z,999.75
2017-03-02T14:17:15.396Z,999.72
2017-03-02T14:18:25.718Z,999.79
2017-03-02T14:19:36.061Z,999.83
2017-03-02T14:20:46.681Z,999.83
2017-03-02T14:21:57.408Z,999.84
2017-03-02T14:23:08.186Z,999.95
2017-03-02T14:24:18.159Z,999.95
2017-03-02T14:25:28.545Z,999.94
2017-03-02T14:26:39.139Z,999.93
2017-03-02T14:27:49.469Z,1000.02
2017-03-02T14:28:59.402Z,1000.06
2017-03-02T14:30:09.766Z,1000.14
2017-03-02T14:31:20.498Z,1000.12
2017-03-02T14:32:31.562Z,1000.23
2017-03-02T14:33:42.325Z,1000.19
2017-03-02T14:34:52.643Z,1000.3
2017-03-02T14:36:02.590Z,1000.29
2017-03-02T14:37:12.568Z,1000.29
2017-03-02T14:38:22.778Z,1000.35
2017-03-02T14:39:33.518Z,1000.42
2017-03-02T14:40:43.460Z,1000.39